createdAt,value
2019-05-20T00:03:38.906Z,3.53
2019-05-20T00:09:01.888Z,4.70
2019-05-20T00:14:25.490Z,5.00
2019-05-20T00:19:50.716Z,5.03
2019-05-20T00:25:12.912Z,4.60
2019-05-20T00:30:36.755Z,6.97
2019-05-20T00:35:59.338Z,5.10
2019-05-20T00:41:22.580Z,5.37
2019-05-20T00:46:45.960Z,5.00
2019-05-20T00:52:09.127Z,4.53
2019-05-20T00:57:32.350Z,5.07
2019-05-20T01:02:57.291Z,4.87
2019-05-20T01:08:19.736Z,5.63
2019-05-20T01:13:42.687Z,5.50
2019-05-20T01:19:05.802Z,7.40
2019-05-20T01:24:29.542Z,6.10
2019-05-20T01:29:52.703Z,5.57
2019-05-20T01:35:15.579Z,5.87
2019-05-20T01:40:38.860Z,7.10
2019-05-20T01:46:02.012Z,7.97
2019-05-20T01:51:25.580Z,7.03
2019-05-20T01:56:49.252Z,9.07
2019-05-20T02:02:12.856Z,8.87
2019-05-20T02:07:36.846Z,8.90
2019-05-20T02:13:00.947Z,21.97
2019-05-20T02:18:24.663Z,11.67
2019-05-20T02:23:48.628Z,11.30
2019-05-20T02:29:11.920Z,13.40
2019-05-20T02:34:34.927Z,13.80
2019-05-20T02:39:57.620Z,11.00
2019-05-20T02:45:21.203Z,12.60
2019-05-20T02:50:45.154Z,12.53
2019-05-20T02:56:09.087Z,17.10
2019-05-20T03:01:32.977Z,14.00
2019-05-20T03:06:56.588Z,15.97
2019-05-20T03:12:19.591Z,16.13
2019-05-20T03:17:43.138Z,17.03
2019-05-20T03:23:07.157Z,16.37
2019-05-20T03:28:30.609Z,16.00
2019-05-20T03:33:53.748Z,18.10
2019-05-20T03:39:17.334Z,18.40
2019-05-20T03:44:40.339Z,18.00
2019-05-20T03:50:03.429Z,17.63
2019-05-20T03:55:26.677Z,24.37
2019-05-20T04:00:49.939Z,18.20
2019-05-20T04:06:12.900Z,17.97
2019-05-20T04:11:35.614Z,20.57
2019-05-20T04:16:58.900Z,18.00
2019-05-20T04:22:22.652Z,18.73
2019-05-20T04:27:45.247Z,19.60
2019-05-20T04:33:08.477Z,24.53
2019-05-20T04:38:32.028Z,20.93
2019-05-20T04:43:55.505Z,21.07
2019-05-20T04:49:19.435Z,18.30
2019-05-20T04:54:42.604Z,24.60
2019-05-20T05:00:05.850Z,16.40
2019-05-20T05:05:37.237Z,18.00
2019-05-20T05:10:53.396Z,16.03
2019-05-20T05:16:26.231Z,19.03
2019-05-20T05:21:49.056Z,18.83
2019-05-20T05:27:11.767Z,16.57
2019-05-20T05:32:42.018Z,16.57
2019-05-20T05:38:04.938Z,18.63
2019-05-20T05:43:28.190Z,20.60
2019-05-20T05:48:52.016Z,22.80
2019-05-20T05:54:15.247Z,24.17
2019-05-20T05:59:38.436Z,20.23
2019-05-20T06:05:01.836Z,18.07
2019-05-20T06:10:25.415Z,17.03
2019-05-20T06:15:48.144Z,15.33
2019-05-20T06:21:11.638Z,15.70
2019-05-20T06:26:34.749Z,14.73
2019-05-20T06:31:57.402Z,13.40
2019-05-20T06:37:21.705Z,12.87
2019-05-20T06:42:45.127Z,13.47
2019-05-20T06:48:07.458Z,11.80
2019-05-20T06:53:30.057Z,12.80
2019-05-20T06:58:53.053Z,13.23
2019-05-20T07:04:16.783Z,12.13
2019-05-20T07:09:40.008Z,12.17
2019-05-20T07:15:04.082Z,11.37
2019-05-20T07:20:27.416Z,14.87
2019-05-20T07:25:50.793Z,13.57
2019-05-20T07:31:13.758Z,15.90
2019-05-20T07:36:36.701Z,11.10
2019-05-20T07:41:59.609Z,9.70
2019-05-20T07:47:22.643Z,12.27
2019-05-20T07:52:45.920Z,10.80
2019-05-20T07:58:08.805Z,12.70
2019-05-20T08:03:31.436Z,18.40
2019-05-20T08:08:53.879Z,10.77
2019-05-20T08:14:17.046Z,11.53
2019-05-20T08:19:40.479Z,11.57
2019-05-20T08:25:04.065Z,11.10
2019-05-20T08:30:32.076Z,11.00
2019-05-20T08:35:54.697Z,10.17
2019-05-20T08:41:17.064Z,10.50
2019-05-20T08:46:40.331Z,10.23
2019-05-20T08:52:03.366Z,11.97
2019-05-20T08:57:26.467Z,11.10
2019-05-20T09:02:49.899Z,10.03
2019-05-20T09:08:12.862Z,12.03
2019-05-20T09:13:36.140Z,10.93
2019-05-20T09:19:00.087Z,10.53
2019-05-20T09:24:23.382Z,10.07
2019-05-20T09:29:47.057Z,10.53
2019-05-20T09:35:13.126Z,12.47
2019-05-20T09:40:42.369Z,13.10
2019-05-20T09:46:08.388Z,10.70
2019-05-20T09:51:31.030Z,12.27
2019-05-20T09:56:54.655Z,10.97
2019-05-20T10:02:18.541Z,9.53
2019-05-20T10:07:42.608Z,12.90
2019-05-20T10:13:06.459Z,12.10
2019-05-20T10:18:37.223Z,11.07
2019-05-20T10:23:57.400Z,11.13
2019-05-20T10:29:21.118Z,14.83
2019-05-20T10:34:44.879Z,16.93
2019-05-20T10:40:09.254Z,14.30
2019-05-20T10:45:34.017Z,9.87
2019-05-20T10:50:57.369Z,10.13
2019-05-20T10:56:20.996Z,11.20
2019-05-20T11:01:51.881Z,12.97
2019-05-20T11:07:15.181Z,17.63
2019-05-20T11:12:38.647Z,14.77
2019-05-20T11:18:02.270Z,16.53
2019-05-20T11:23:26.353Z,18.00
2019-05-20T11:28:50.268Z,13.83
2019-05-20T11:34:13.430Z,12.67
2019-05-20T11:39:37.580Z,14.80
2019-05-20T11:45:00.747Z,14.27
2019-05-20T11:50:24.378Z,12.47
2019-05-20T11:55:48.039Z,13.63
2019-05-20T12:01:11.626Z,13.33
2019-05-20T12:06:35.016Z,21.03
2019-05-20T12:11:58.297Z,15.07
2019-05-20T12:17:21.892Z,17.03
2019-05-20T12:22:45.249Z,19.37
2019-05-20T12:28:08.800Z,18.90
2019-05-20T12:33:32.798Z,15.63
2019-05-20T12:38:56.264Z,19.30
2019-05-20T12:44:20.078Z,21.53
2019-05-20T12:49:43.123Z,20.23
2019-05-20T12:55:09.621Z,16.73
2019-05-20T13:00:31.917Z,18.50
2019-05-20T13:05:55.621Z,16.03
2019-05-20T13:11:19.198Z,20.43
2019-05-20T13:16:42.347Z,18.00
2019-05-20T13:22:05.515Z,16.70
2019-05-20T13:27:29.569Z,20.97
2019-05-20T13:32:52.928Z,21.73
2019-05-20T13:38:16.727Z,21.33
2019-05-20T13:43:39.899Z,28.30
2019-05-20T13:49:03.445Z,19.43
2019-05-20T13:54:26.695Z,25.20
2019-05-20T13:59:50.679Z,21.00
2019-05-20T14:05:14.331Z,20.87
2019-05-20T14:10:38.155Z,23.90
2019-05-20T14:16:01.990Z,24.07
2019-05-20T14:21:25.893Z,24.53
2019-05-20T14:26:49.774Z,20.93
2019-05-20T14:32:13.506Z,20.07
2019-05-20T14:37:37.336Z,17.60
2019-05-20T14:43:00.921Z,20.40
2019-05-20T14:48:24.297Z,17.23
2019-05-20T14:53:47.762Z,16.17
2019-05-20T14:59:10.947Z,16.63
2019-05-20T15:04:34.502Z,18.33
2019-05-20T15:09:58.326Z,16.17
2019-05-20T15:15:22.444Z,20.93
2019-05-20T15:20:46.148Z,14.47
2019-05-20T15:26:09.663Z,14.73
2019-05-20T15:31:33.644Z,15.33
2019-05-20T15:36:57.512Z,17.50
2019-05-20T15:42:21.466Z,17.13
2019-05-20T15:47:44.789Z,15.40
2019-05-20T15:53:11.238Z,18.40
2019-05-20T15:58:33.386Z,16.83
2019-05-20T16:03:56.409Z,16.60
2019-05-20T16:09:20.543Z,24.57
2019-05-20T16:14:44.478Z,19.67
2019-05-20T16:20:08.996Z,27.30
2019-05-20T16:25:33.289Z,19.53
2019-05-20T16:30:57.048Z,18.77
2019-05-20T16:36:20.961Z,19.30
2019-05-20T16:41:45.040Z,25.90
2019-05-20T16:47:09.851Z,20.30
2019-05-20T16:52:33.131Z,21.53
2019-05-20T16:57:56.985Z,18.03
2019-05-20T17:03:20.997Z,25.40
2019-05-20T17:08:44.855Z,20.95
2019-05-20T17:14:10.637Z,22.27
2019-05-20T17:19:33.715Z,17.53
2019-05-20T17:24:57.706Z,21.53
2019-05-20T17:30:21.513Z,17.03
2019-05-20T17:35:44.781Z,22.53
2019-05-20T17:41:08.513Z,19.10
2019-05-20T17:46:32.348Z,17.80
2019-05-20T17:51:55.615Z,20.20
2019-05-20T17:57:19.835Z,21.77
2019-05-20T18:02:44.088Z,17.80
2019-05-20T18:08:07.840Z,16.60
2019-05-20T18:13:31.728Z,17.57
2019-05-20T18:18:55.709Z,19.17
2019-05-20T18:24:19.748Z,15.63
2019-05-20T18:29:43.018Z,16.23
2019-05-20T18:35:06.435Z,14.53
2019-05-20T18:40:30.287Z,15.20
2019-05-20T18:45:54.036Z,17.03
2019-05-20T18:51:17.837Z,13.90
2019-05-20T18:56:41.959Z,13.93
2019-05-20T19:02:05.960Z,16.87
2019-05-20T19:07:29.912Z,14.00
2019-05-20T19:12:53.769Z,13.60
2019-05-20T19:18:18.212Z,20.53
2019-05-20T19:23:42.145Z,13.83
2019-05-20T19:29:06.424Z,14.40
2019-05-20T19:34:29.676Z,14.70
2019-05-20T19:39:53.475Z,14.13
2019-05-20T19:45:17.315Z,18.70
2019-05-20T19:50:40.807Z,15.77
2019-05-20T19:56:04.450Z,16.23
2019-05-20T20:01:28.244Z,17.23
2019-05-20T20:06:52.375Z,14.60
2019-05-20T20:12:15.937Z,20.77
2019-05-20T20:17:39.851Z,22.17
2019-05-20T20:23:03.425Z,17.23
2019-05-20T20:28:26.904Z,19.63
2019-05-20T20:33:50.387Z,17.73
2019-05-20T20:39:14.147Z,20.37
2019-05-20T20:44:37.975Z,17.70
2019-05-20T20:50:02.297Z,20.33
2019-05-20T20:55:26.285Z,19.77
2019-05-20T21:00:52.325Z,21.40
2019-05-20T21:06:16.370Z,19.93
2019-05-20T21:11:40.154Z,16.70
2019-05-20T21:17:03.462Z,18.33
2019-05-20T21:22:27.307Z,16.40
2019-05-20T21:27:50.689Z,16.97
2019-05-20T21:33:14.584Z,15.13
2019-05-20T21:38:38.191Z,15.57
2019-05-20T21:44:02.434Z,14.90
2019-05-20T21:49:25.720Z,17.83
2019-05-20T21:54:49.751Z,16.83
2019-05-20T22:00:18.430Z,15.67
2019-05-20T22:05:41.943Z,17.87
2019-05-20T22:11:05.991Z,18.13
2019-05-20T22:16:29.891Z,15.33
2019-05-20T22:22:16.003Z,16.23
2019-05-20T22:27:39.108Z,19.67
2019-05-20T22:33:02.827Z,15.73
2019-05-20T22:38:26.811Z,14.53
2019-05-20T22:43:50.476Z,16.63
2019-05-20T22:49:14.458Z,18.03
2019-05-20T22:54:38.181Z,17.17
2019-05-20T23:00:02.018Z,16.00
2019-05-20T23:05:25.729Z,17.70
2019-05-20T23:10:49.603Z,15.97
2019-05-20T23:16:13.323Z,16.83
2019-05-20T23:21:37.324Z,16.37
2019-05-20T23:27:00.578Z,17.60
2019-05-20T23:32:24.537Z,15.60
2019-05-20T23:37:48.050Z,17.67
2019-05-20T23:43:11.537Z,18.23
2019-05-20T23:48:35.043Z,16.33
2019-05-20T23:53:58.155Z,14.87
2019-05-20T23:59:20.907Z,11.87
